sensor_id;sensor_type;location;lat;lon;timestamp;P1;durP1;ratioP1;P2;durP2;ratioP2
20101;SDS011;10210;52.284;9.892;2022-09-03T00:01:34;4.93;;;1.53;;
20101;SDS011;10210;52.284;9.892;2022-09-03T00:04:11;4.20;;;1.70;;
20101;SDS011;10210;52.284;9.892;2022-09-03T00:06:48;7.00;;;1.90;;
20101;SDS011;10210;52.284;9.892;2022-09-03T00:09:26;6.30;;;1.80;;
20101;SDS011;10210;52.284;9.892;2022-09-03T00:14:46;5.23;;;1.80;;
20101;SDS011;10210;52.284;9.892;2022-09-03T00:17:23;5.43;;;1.70;;
20101;SDS011;10210;52.284;9.892;2022-09-03T00:20:01;6.33;;;1.90;;
20101;SDS011;10210;52.284;9.892;2022-09-03T00:22:41;2.67;;;1.40;;
20101;SDS011;10210;52.284;9.892;2022-09-03T00:25:12;2.97;;;1.50;;
20101;SDS011;10210;52.284;9.892;2022-09-03T00:27:45;3.97;;;1.73;;
20101;SDS011;10210;52.284;9.892;2022-09-03T00:30:18;6.73;;;1.60;;
20101;SDS011;10210;52.284;9.892;2022-09-03T00:32:44;8.00;;;2.53;;
20101;SDS011;10210;52.284;9.892;2022-09-03T00:36:03;3.40;;;1.70;;
20101;SDS011;10210;52.284;9.892;2022-09-03T00:38:56;4.80;;;1.70;;
20101;SDS011;10210;52.284;9.892;2022-09-03T00:44:05;3.57;;;1.50;;
20101;SDS011;10210;52.284;9.892;2022-09-03T00:49:49;2.93;;;1.67;;
20101;SDS011;10210;52.284;9.892;2022-09-03T01:00:41;4.90;;;1.90;;
20101;SDS011;10210;52.284;9.892;2022-09-03T01:03:10;7.17;;;1.80;;
20101;SDS011;10210;52.284;9.892;2022-09-03T01:14:16;4.83;;;1.90;;
20101;SDS011;10210;52.284;9.892;2022-09-03T01:17:07;5.27;;;1.83;;
20101;SDS011;10210;52.284;9.892;2022-09-03T01:23:19;3.83;;;1.70;;
20101;SDS011;10210;52.284;9.892;2022-09-03T01:29:24;5.30;;;1.70;;
20101;SDS011;10210;52.284;9.892;2022-09-03T01:32:26;3.23;;;1.50;;
20101;SDS011;10210;52.284;9.892;2022-09-03T01:41:14;4.53;;;1.70;;
20101;SDS011;10210;52.284;9.892;2022-09-03T01:44:31;3.30;;;1.50;;
20101;SDS011;10210;52.284;9.892;2022-09-03T01:50:44;5.50;;;1.80;;
20101;SDS011;10210;52.284;9.892;2022-09-03T01:53:33;3.50;;;1.60;;
20101;SDS011;10210;52.284;9.892;2022-09-03T01:56:30;4.27;;;1.60;;
20101;SDS011;10210;52.284;9.892;2022-09-03T01:59:28;4.83;;;1.73;;
20101;SDS011;10210;52.284;9.892;2022-09-03T02:02:09;3.73;;;1.70;;
20101;SDS011;10210;52.284;9.892;2022-09-03T02:05:02;4.57;;;1.50;;
20101;SDS011;10210;52.284;9.892;2022-09-03T02:07:56;4.87;;;1.80;;
20101;SDS011;10210;52.284;9.892;2022-09-03T02:10:47;4.10;;;1.67;;
20101;SDS011;10210;52.284;9.892;2022-09-03T02:16:01;3.73;;;1.60;;
20101;SDS011;10210;52.284;9.892;2022-09-03T02:18:39;2.30;;;1.40;;
20101;SDS011;10210;52.284;9.892;2022-09-03T02:21:14;3.43;;;1.63;;
20101;SDS011;10210;52.284;9.892;2022-09-03T02:23:45;6.13;;;1.80;;
20101;SDS011;10210;52.284;9.892;2022-09-03T02:26:14;4.30;;;1.57;;
20101;SDS011;10210;52.284;9.892;2022-09-03T02:28:45;4.63;;;1.70;;
20101;SDS011;10210;52.284;9.892;2022-09-03T02:31:11;4.80;;;1.67;;
20101;SDS011;10210;52.284;9.892;2022-09-03T02:33:38;5.40;;;1.70;;
20101;SDS011;10210;52.284;9.892;2022-09-03T02:36:09;3.57;;;1.70;;
20101;SDS011;10210;52.284;9.892;2022-09-03T02:38:40;3.83;;;1.60;;
20101;SDS011;10210;52.284;9.892;2022-09-03T02:41:07;4.87;;;1.70;;
20101;SDS011;10210;52.284;9.892;2022-09-03T02:43:38;3.20;;;1.70;;
20101;SDS011;10210;52.284;9.892;2022-09-03T02:49:19;3.20;;;1.70;;
20101;SDS011;10210;52.284;9.892;2022-09-03T02:51:44;5.17;;;1.63;;
20101;SDS011;10210;52.284;9.892;2022-09-03T02:54:10;5.33;;;1.70;;
20101;SDS011;10210;52.284;9.892;2022-09-03T02:56:38;5.10;;;1.60;;
20101;SDS011;10210;52.284;9.892;2022-09-03T02:59:04;4.30;;;1.90;;
20101;SDS011;10210;52.284;9.892;2022-09-03T03:01:32;3.37;;;1.60;;
20101;SDS011;10210;52.284;9.892;2022-09-03T03:03:59;6.70;;;2.07;;
20101;SDS011;10210;52.284;9.892;2022-09-03T03:06:25;8.20;;;1.70;;
20101;SDS011;10210;52.284;9.892;2022-09-03T03:08:51;5.13;;;1.67;;
20101;SDS011;10210;52.284;9.892;2022-09-03T03:11:21;6.50;;;1.80;;
20101;SDS011;10210;52.284;9.892;2022-09-03T03:13:51;4.67;;;1.60;;
20101;SDS011;10210;52.284;9.892;2022-09-03T03:16:17;3.43;;;1.50;;
20101;SDS011;10210;52.284;9.892;2022-09-03T03:18:43;3.23;;;1.60;;
20101;SDS011;10210;52.284;9.892;2022-09-03T03:21:13;3.47;;;1.40;;
20101;SDS011;10210;52.284;9.892;2022-09-03T03:23:40;3.60;;;1.60;;
20101;SDS011;10210;52.284;9.892;2022-09-03T03:26:08;4.60;;;1.80;;
20101;SDS011;10210;52.284;9.892;2022-09-03T03:28:36;6.50;;;1.70;;
20101;SDS011;10210;52.284;9.892;2022-09-03T03:31:09;3.80;;;1.70;;
20101;SDS011;10210;52.284;9.892;2022-09-03T03:33:41;6.03;;;1.53;;
20101;SDS011;10210;52.284;9.892;2022-09-03T03:36:12;4.60;;;1.40;;
20101;SDS011;10210;52.284;9.892;2022-09-03T03:38:39;2.30;;;1.50;;
20101;SDS011;10210;52.284;9.892;2022-09-03T03:41:11;3.20;;;1.60;;
20101;SDS011;10210;52.284;9.892;2022-09-03T03:43:51;3.73;;;1.67;;
20101;SDS011;10210;52.284;9.892;2022-09-03T03:46:22;4.33;;;1.60;;
20101;SDS011;10210;52.284;9.892;2022-09-03T03:48:52;3.70;;;1.70;;
20101;SDS011;10210;52.284;9.892;2022-09-03T03:51:18;4.13;;;1.50;;
20101;SDS011;10210;52.284;9.892;2022-09-03T03:53:44;4.67;;;1.57;;
20101;SDS011;10210;52.284;9.892;2022-09-03T03:56:12;3.97;;;1.40;;
20101;SDS011;10210;52.284;9.892;2022-09-03T03:58:40;5.80;;;1.53;;
20101;SDS011;10210;52.284;9.892;2022-09-03T04:01:09;4.47;;;1.60;;
20101;SDS011;10210;52.284;9.892;2022-09-03T04:03:38;4.10;;;1.67;;
20101;SDS011;10210;52.284;9.892;2022-09-03T04:06:05;4.53;;;1.60;;
20101;SDS011;10210;52.284;9.892;2022-09-03T04:08:36;5.17;;;1.50;;
20101;SDS011;10210;52.284;9.892;2022-09-03T04:11:05;5.27;;;1.80;;
20101;SDS011;10210;52.284;9.892;2022-09-03T04:13:35;3.83;;;1.53;;
20101;SDS011;10210;52.284;9.892;2022-09-03T04:16:04;3.40;;;1.60;;
20101;SDS011;10210;52.284;9.892;2022-09-03T04:18:34;3.43;;;1.67;;
20101;SDS011;10210;52.284;9.892;2022-09-03T04:21:01;6.87;;;1.50;;
20101;SDS011;10210;52.284;9.892;2022-09-03T04:23:30;5.30;;;1.70;;
20101;SDS011;10210;52.284;9.892;2022-09-03T04:25:57;4.27;;;1.30;;
20101;SDS011;10210;52.284;9.892;2022-09-03T04:28:23;5.60;;;1.57;;
20101;SDS011;10210;52.284;9.892;2022-09-03T04:30:50;5.77;;;1.50;;
20101;SDS011;10210;52.284;9.892;2022-09-03T04:33:15;7.00;;;1.70;;
20101;SDS011;10210;52.284;9.892;2022-09-03T04:35:41;3.77;;;1.60;;
20101;SDS011;10210;52.284;9.892;2022-09-03T04:38:08;5.57;;;1.73;;
20101;SDS011;10210;52.284;9.892;2022-09-03T04:40:33;3.27;;;1.50;;
20101;SDS011;10210;52.284;9.892;2022-09-03T04:42:59;3.33;;;1.43;;
20101;SDS011;10210;52.284;9.892;2022-09-03T04:45:25;5.60;;;1.70;;
20101;SDS011;10210;52.284;9.892;2022-09-03T04:47:56;5.27;;;1.70;;
20101;SDS011;10210;52.284;9.892;2022-09-03T04:50:25;5.30;;;1.60;;
20101;SDS011;10210;52.284;9.892;2022-09-03T04:52:52;2.90;;;1.40;;
20101;SDS011;10210;52.284;9.892;2022-09-03T04:55:22;4.63;;;1.60;;
20101;SDS011;10210;52.284;9.892;2022-09-03T04:57:48;5.27;;;1.60;;
20101;SDS011;10210;52.284;9.892;2022-09-03T05:00:14;3.40;;;1.50;;
20101;SDS011;10210;52.284;9.892;2022-09-03T05:02:42;6.30;;;1.70;;
20101;SDS011;10210;52.284;9.892;2022-09-03T05:05:11;4.07;;;1.53;;
20101;SDS011;10210;52.284;9.892;2022-09-03T05:07:37;5.63;;;1.70;;
20101;SDS011;10210;52.284;9.892;2022-09-03T05:10:05;2.40;;;1.60;;
20101;SDS011;10210;52.284;9.892;2022-09-03T05:12:33;5.57;;;1.47;;
20101;SDS011;10210;52.284;9.892;2022-09-03T05:15:00;4.03;;;1.50;;
20101;SDS011;10210;52.284;9.892;2022-09-03T05:17:26;2.90;;;1.60;;
20101;SDS011;10210;52.284;9.892;2022-09-03T05:19:51;6.37;;;1.87;;
20101;SDS011;10210;52.284;9.892;2022-09-03T05:22:18;6.30;;;2.03;;
20101;SDS011;10210;52.284;9.892;2022-09-03T05:24:47;6.20;;;1.60;;
20101;SDS011;10210;52.284;9.892;2022-09-03T05:27:14;3.53;;;1.67;;
20101;SDS011;10210;52.284;9.892;2022-09-03T05:29:44;4.43;;;1.60;;
20101;SDS011;10210;52.284;9.892;2022-09-03T05:32:10;4.33;;;1.77;;
20101;SDS011;10210;52.284;9.892;2022-09-03T05:34:41;3.53;;;1.50;;
20101;SDS011;10210;52.284;9.892;2022-09-03T05:37:08;4.00;;;1.57;;
20101;SDS011;10210;52.284;9.892;2022-09-03T05:39:35;5.23;;;1.60;;
20101;SDS011;10210;52.284;9.892;2022-09-03T05:42:01;5.30;;;1.70;;
20101;SDS011;10210;52.284;9.892;2022-09-03T05:44:27;4.60;;;1.43;;
20101;SDS011;10210;52.284;9.892;2022-09-03T05:46:53;7.23;;;2.53;;
20101;SDS011;10210;52.284;9.892;2022-09-03T05:49:19;4.67;;;1.70;;
20101;SDS011;10210;52.284;9.892;2022-09-03T05:51:44;7.03;;;1.67;;
20101;SDS011;10210;52.284;9.892;2022-09-03T05:54:10;5.43;;;1.70;;
20101;SDS011;10210;52.284;9.892;2022-09-03T05:56:37;5.90;;;2.10;;
20101;SDS011;10210;52.284;9.892;2022-09-03T05:59:05;5.40;;;1.63;;
20101;SDS011;10210;52.284;9.892;2022-09-03T06:04:08;5.77;;;1.70;;
20101;SDS011;10210;52.284;9.892;2022-09-03T06:06:38;7.77;;;1.90;;
20101;SDS011;10210;52.284;9.892;2022-09-03T06:09:10;6.90;;;1.80;;
20101;SDS011;10210;52.284;9.892;2022-09-03T06:11:39;6.90;;;2.00;;
20101;SDS011;10210;52.284;9.892;2022-09-03T06:14:07;5.70;;;2.10;;
20101;SDS011;10210;52.284;9.892;2022-09-03T06:16:40;7.63;;;2.20;;
20101;SDS011;10210;52.284;9.892;2022-09-03T06:19:08;8.00;;;2.37;;
20101;SDS011;10210;52.284;9.892;2022-09-03T06:21:37;9.73;;;2.40;;
20101;SDS011;10210;52.284;9.892;2022-09-03T06:24:11;6.90;;;2.30;;
20101;SDS011;10210;52.284;9.892;2022-09-03T06:26:40;9.60;;;2.40;;
20101;SDS011;10210;52.284;9.892;2022-09-03T06:29:07;6.83;;;2.43;;
20101;SDS011;10210;52.284;9.892;2022-09-03T06:31:33;9.20;;;2.53;;
20101;SDS011;10210;52.284;9.892;2022-09-03T06:34:00;7.93;;;2.80;;
20101;SDS011;10210;52.284;9.892;2022-09-03T06:36:26;9.33;;;2.50;;
20101;SDS011;10210;52.284;9.892;2022-09-03T06:38:53;12.20;;;2.90;;
20101;SDS011;10210;52.284;9.892;2022-09-03T06:41:22;8.70;;;2.73;;
20101;SDS011;10210;52.284;9.892;2022-09-03T06:43:54;9.73;;;2.70;;
20101;SDS011;10210;52.284;9.892;2022-09-03T06:46:25;7.73;;;2.37;;
20101;SDS011;10210;52.284;9.892;2022-09-03T06:48:51;7.07;;;2.43;;
20101;SDS011;10210;52.284;9.892;2022-09-03T06:51:18;9.13;;;3.07;;
20101;SDS011;10210;52.284;9.892;2022-09-03T06:53:48;8.77;;;2.80;;
20101;SDS011;10210;52.284;9.892;2022-09-03T06:56:18;8.17;;;2.50;;
20101;SDS011;10210;52.284;9.892;2022-09-03T06:58:56;10.77;;;3.47;;
20101;SDS011;10210;52.284;9.892;2022-09-03T07:01:26;9.90;;;2.90;;
20101;SDS011;10210;52.284;9.892;2022-09-03T07:03:55;7.67;;;2.30;;
20101;SDS011;10210;52.284;9.892;2022-09-03T07:06:25;11.63;;;2.80;;
20101;SDS011;10210;52.284;9.892;2022-09-03T07:08:57;12.13;;;2.97;;
20101;SDS011;10210;52.284;9.892;2022-09-03T07:11:26;8.70;;;2.63;;
20101;SDS011;10210;52.284;9.892;2022-09-03T07:13:56;8.30;;;2.60;;
20101;SDS011;10210;52.284;9.892;2022-09-03T07:16:26;9.70;;;2.87;;
20101;SDS011;10210;52.284;9.892;2022-09-03T07:18:55;9.53;;;2.67;;
20101;SDS011;10210;52.284;9.892;2022-09-03T07:21:25;7.53;;;2.70;;
20101;SDS011;10210;52.284;9.892;2022-09-03T07:23:53;10.07;;;2.87;;
20101;SDS011;10210;52.284;9.892;2022-09-03T07:26:28;11.70;;;3.00;;
20101;SDS011;10210;52.284;9.892;2022-09-03T07:28:56;8.03;;;2.63;;
20101;SDS011;10210;52.284;9.892;2022-09-03T07:31:29;9.40;;;2.90;;
20101;SDS011;10210;52.284;9.892;2022-09-03T07:34:03;8.10;;;2.40;;
20101;SDS011;10210;52.284;9.892;2022-09-03T07:36:36;7.97;;;2.50;;
20101;SDS011;10210;52.284;9.892;2022-09-03T07:39:12;8.17;;;2.37;;
20101;SDS011;10210;52.284;9.892;2022-09-03T07:41:39;9.97;;;2.17;;
20101;SDS011;10210;52.284;9.892;2022-09-03T07:44:10;8.83;;;2.40;;
20101;SDS011;10210;52.284;9.892;2022-09-03T07:46:39;7.90;;;2.40;;
20101;SDS011;10210;52.284;9.892;2022-09-03T07:49:05;10.40;;;2.87;;
20101;SDS011;10210;52.284;9.892;2022-09-03T07:51:35;6.93;;;2.30;;
20101;SDS011;10210;52.284;9.892;2022-09-03T07:54:03;7.23;;;2.30;;
20101;SDS011;10210;52.284;9.892;2022-09-03T07:56:34;7.63;;;2.73;;
20101;SDS011;10210;52.284;9.892;2022-09-03T07:59:01;6.03;;;1.90;;
20101;SDS011;10210;52.284;9.892;2022-09-03T08:01:29;6.53;;;1.90;;
20101;SDS011;10210;52.284;9.892;2022-09-03T08:03:56;5.20;;;1.90;;
20101;SDS011;10210;52.284;9.892;2022-09-03T08:06:23;5.67;;;1.90;;
20101;SDS011;10210;52.284;9.892;2022-09-03T08:08:55;6.07;;;1.80;;
20101;SDS011;10210;52.284;9.892;2022-09-03T08:11:28;3.93;;;1.70;;
20101;SDS011;10210;52.284;9.892;2022-09-03T08:13:56;4.87;;;1.60;;
20101;SDS011;10210;52.284;9.892;2022-09-03T08:16:27;6.77;;;1.63;;
20101;SDS011;10210;52.284;9.892;2022-09-03T08:18:55;8.23;;;1.80;;
20101;SDS011;10210;52.284;9.892;2022-09-03T08:21:21;7.10;;;1.80;;
20101;SDS011;10210;52.284;9.892;2022-09-03T08:23:49;6.97;;;1.80;;
20101;SDS011;10210;52.284;9.892;2022-09-03T08:26:18;5.00;;;1.90;;
20101;SDS011;10210;52.284;9.892;2022-09-03T08:28:45;5.87;;;1.90;;
20101;SDS011;10210;52.284;9.892;2022-09-03T08:31:18;6.83;;;1.63;;
20101;SDS011;10210;52.284;9.892;2022-09-03T08:33:50;6.77;;;1.80;;
20101;SDS011;10210;52.284;9.892;2022-09-03T08:36:19;7.80;;;1.90;;
20101;SDS011;10210;52.284;9.892;2022-09-03T08:38:51;8.13;;;1.77;;
20101;SDS011;10210;52.284;9.892;2022-09-03T08:41:30;6.70;;;1.80;;
20101;SDS011;10210;52.284;9.892;2022-09-03T08:44:32;9.37;;;2.00;;
20101;SDS011;10210;52.284;9.892;2022-09-03T08:52:59;3.23;;;1.50;;
20101;SDS011;10210;52.284;9.892;2022-09-03T08:55:46;7.03;;;1.90;;
20101;SDS011;10210;52.284;9.892;2022-09-03T08:58:26;7.03;;;1.80;;
20101;SDS011;10210;52.284;9.892;2022-09-03T09:04:30;8.53;;;1.60;;
20101;SDS011;10210;52.284;9.892;2022-09-03T09:07:31;6.20;;;1.70;;
20101;SDS011;10210;52.284;9.892;2022-09-03T09:10:42;5.60;;;1.70;;
20101;SDS011;10210;52.284;9.892;2022-09-03T09:13:27;4.90;;;1.70;;
20101;SDS011;10210;52.284;9.892;2022-09-03T09:16:09;6.37;;;1.60;;
20101;SDS011;10210;52.284;9.892;2022-09-03T09:21:50;7.27;;;2.03;;
20101;SDS011;10210;52.284;9.892;2022-09-03T09:24:23;10.77;;;2.77;;
20101;SDS011;10210;52.284;9.892;2022-09-03T09:26:58;6.17;;;2.00;;
20101;SDS011;10210;52.284;9.892;2022-09-03T09:29:30;4.83;;;2.10;;
20101;SDS011;10210;52.284;9.892;2022-09-03T09:32:00;8.90;;;2.30;;
20101;SDS011;10210;52.284;9.892;2022-09-03T09:34:32;13.00;;;2.80;;
20101;SDS011;10210;52.284;9.892;2022-09-03T09:37:05;11.00;;;2.80;;
20101;SDS011;10210;52.284;9.892;2022-09-03T09:39:37;7.23;;;2.63;;
20101;SDS011;10210;52.284;9.892;2022-09-03T09:42:06;8.80;;;2.37;;
20101;SDS011;10210;52.284;9.892;2022-09-03T09:44:36;12.17;;;2.50;;
20101;SDS011;10210;52.284;9.892;2022-09-03T09:47:06;7.73;;;2.00;;
20101;SDS011;10210;52.284;9.892;2022-09-03T09:49:56;7.10;;;2.30;;
20101;SDS011;10210;52.284;9.892;2022-09-03T09:52:24;10.07;;;2.10;;
20101;SDS011;10210;52.284;9.892;2022-09-03T09:55:04;7.73;;;1.80;;
20101;SDS011;10210;52.284;9.892;2022-09-03T09:57:38;9.13;;;2.13;;
20101;SDS011;10210;52.284;9.892;2022-09-03T10:02:35;6.00;;;1.93;;
20101;SDS011;10210;52.284;9.892;2022-09-03T10:05:25;5.63;;;1.90;;
20101;SDS011;10210;52.284;9.892;2022-09-03T10:07:56;6.73;;;1.80;;
20101;SDS011;10210;52.284;9.892;2022-09-03T10:10:49;4.73;;;1.60;;
20101;SDS011;10210;52.284;9.892;2022-09-03T10:16:19;4.53;;;1.50;;
20101;SDS011;10210;52.284;9.892;2022-09-03T10:19:17;5.07;;;1.53;;
20101;SDS011;10210;52.284;9.892;2022-09-03T10:21:53;3.97;;;1.50;;
20101;SDS011;10210;52.284;9.892;2022-09-03T10:24:40;6.87;;;1.67;;
20101;SDS011;10210;52.284;9.892;2022-09-03T10:27:21;4.80;;;1.50;;
20101;SDS011;10210;52.284;9.892;2022-09-03T10:29:48;2.53;;;1.17;;
20101;SDS011;10210;52.284;9.892;2022-09-03T10:37:48;6.17;;;1.50;;
20101;SDS011;10210;52.284;9.892;2022-09-03T10:40:29;6.13;;;1.67;;
20101;SDS011;10210;52.284;9.892;2022-09-03T10:48:38;4.50;;;1.40;;
20101;SDS011;10210;52.284;9.892;2022-09-03T10:57:07;10.37;;;2.10;;
20101;SDS011;10210;52.284;9.892;2022-09-03T11:02:42;6.73;;;1.70;;
20101;SDS011;10210;52.284;9.892;2022-09-03T11:05:39;5.83;;;1.50;;
20101;SDS011;10210;52.284;9.892;2022-09-03T11:08:22;4.07;;;1.40;;
20101;SDS011;10210;52.284;9.892;2022-09-03T11:11:13;4.30;;;1.63;;
20101;SDS011;10210;52.284;9.892;2022-09-03T11:13:51;3.53;;;1.30;;
20101;SDS011;10210;52.284;9.892;2022-09-03T11:16:36;4.83;;;1.57;;
20101;SDS011;10210;52.284;9.892;2022-09-03T11:19:32;8.27;;;1.37;;
20101;SDS011;10210;52.284;9.892;2022-09-03T11:22:07;4.20;;;1.40;;
20101;SDS011;10210;52.284;9.892;2022-09-03T11:24:35;4.03;;;1.20;;
20101;SDS011;10210;52.284;9.892;2022-09-03T11:33:13;3.33;;;1.20;;
20101;SDS011;10210;52.284;9.892;2022-09-03T11:35:48;4.47;;;1.37;;
20101;SDS011;10210;52.284;9.892;2022-09-03T11:38:29;5.30;;;1.50;;
20101;SDS011;10210;52.284;9.892;2022-09-03T11:41:11;5.43;;;1.47;;
20101;SDS011;10210;52.284;9.892;2022-09-03T11:44:17;2.90;;;1.23;;
20101;SDS011;10210;52.284;9.892;2022-09-03T11:46:53;6.80;;;1.60;;
20101;SDS011;10210;52.284;9.892;2022-09-03T11:49:29;4.40;;;1.60;;
20101;SDS011;10210;52.284;9.892;2022-09-03T11:52:00;4.53;;;1.40;;
20101;SDS011;10210;52.284;9.892;2022-09-03T11:54:41;4.87;;;1.50;;
20101;SDS011;10210;52.284;9.892;2022-09-03T11:57:13;5.97;;;1.37;;
20101;SDS011;10210;52.284;9.892;2022-09-03T11:59:49;7.47;;;2.53;;
20101;SDS011;10210;52.284;9.892;2022-09-03T12:02:26;4.23;;;1.50;;
20101;SDS011;10210;52.284;9.892;2022-09-03T12:07:54;4.10;;;1.30;;
20101;SDS011;10210;52.284;9.892;2022-09-03T12:13:26;3.27;;;1.23;;
20101;SDS011;10210;52.284;9.892;2022-09-03T12:16:27;5.07;;;1.30;;
20101;SDS011;10210;52.284;9.892;2022-09-03T12:22:15;5.50;;;1.30;;
20101;SDS011;10210;52.284;9.892;2022-09-03T12:24:43;5.23;;;1.37;;
20101;SDS011;10210;52.284;9.892;2022-09-03T12:27:14;5.23;;;1.27;;
20101;SDS011;10210;52.284;9.892;2022-09-03T12:29:59;3.90;;;1.40;;
20101;SDS011;10210;52.284;9.892;2022-09-03T12:32:34;3.70;;;1.20;;
20101;SDS011;10210;52.284;9.892;2022-09-03T12:35:17;2.50;;;1.40;;
20101;SDS011;10210;52.284;9.892;2022-09-03T12:37:46;5.87;;;1.57;;
20101;SDS011;10210;52.284;9.892;2022-09-03T12:40:20;3.87;;;1.43;;
20101;SDS011;10210;52.284;9.892;2022-09-03T12:42:50;5.23;;;1.30;;
20101;SDS011;10210;52.284;9.892;2022-09-03T12:45:18;4.20;;;1.40;;
20101;SDS011;10210;52.284;9.892;2022-09-03T12:47:50;3.17;;;1.30;;
20101;SDS011;10210;52.284;9.892;2022-09-03T12:50:18;5.27;;;1.43;;
20101;SDS011;10210;52.284;9.892;2022-09-03T12:52:51;6.07;;;1.30;;
20101;SDS011;10210;52.284;9.892;2022-09-03T12:55:40;5.17;;;1.20;;
20101;SDS011;10210;52.284;9.892;2022-09-03T12:58:16;3.80;;;1.27;;
20101;SDS011;10210;52.284;9.892;2022-09-03T13:00:55;4.60;;;1.10;;
20101;SDS011;10210;52.284;9.892;2022-09-03T13:03:30;2.63;;;1.27;;
20101;SDS011;10210;52.284;9.892;2022-09-03T13:06:08;4.23;;;1.13;;
20101;SDS011;10210;52.284;9.892;2022-09-03T13:08:49;3.53;;;1.30;;
20101;SDS011;10210;52.284;9.892;2022-09-03T13:11:20;4.27;;;1.40;;
20101;SDS011;10210;52.284;9.892;2022-09-03T13:13:51;3.90;;;1.40;;
20101;SDS011;10210;52.284;9.892;2022-09-03T13:19:19;3.57;;;1.23;;
20101;SDS011;10210;52.284;9.892;2022-09-03T13:28:08;4.00;;;1.50;;
20101;SDS011;10210;52.284;9.892;2022-09-03T13:31:02;4.90;;;1.13;;
20101;SDS011;10210;52.284;9.892;2022-09-03T13:33:56;2.67;;;1.20;;
20101;SDS011;10210;52.284;9.892;2022-09-03T13:36:34;3.87;;;1.67;;
20101;SDS011;10210;52.284;9.892;2022-09-03T13:42:04;3.03;;;1.13;;
20101;SDS011;10210;52.284;9.892;2022-09-03T13:44:50;4.80;;;1.20;;
20101;SDS011;10210;52.284;9.892;2022-09-03T13:48:07;3.40;;;1.53;;
20101;SDS011;10210;52.284;9.892;2022-09-03T13:57:07;5.27;;;1.60;;
20101;SDS011;10210;52.284;9.892;2022-09-03T13:59:56;3.57;;;1.30;;
20101;SDS011;10210;52.284;9.892;2022-09-03T14:08:34;3.93;;;1.47;;
20101;SDS011;10210;52.284;9.892;2022-09-03T14:20:03;2.20;;;1.20;;
20101;SDS011;10210;52.284;9.892;2022-09-03T14:25:31;4.17;;;1.10;;
20101;SDS011;10210;52.284;9.892;2022-09-03T14:37:34;3.27;;;1.30;;
20101;SDS011;10210;52.284;9.892;2022-09-03T14:40:30;3.87;;;1.30;;
20101;SDS011;10210;52.284;9.892;2022-09-03T14:52:14;7.50;;;1.40;;
20101;SDS011;10210;52.284;9.892;2022-09-03T14:55:00;4.63;;;1.30;;
20101;SDS011;10210;52.284;9.892;2022-09-03T14:57:42;3.43;;;1.40;;
20101;SDS011;10210;52.284;9.892;2022-09-03T15:00:32;4.37;;;1.30;;
20101;SDS011;10210;52.284;9.892;2022-09-03T15:03:17;4.23;;;1.30;;
20101;SDS011;10210;52.284;9.892;2022-09-03T15:12:09;2.07;;;1.10;;
20101;SDS011;10210;52.284;9.892;2022-09-03T15:14:54;4.00;;;1.20;;
20101;SDS011;10210;52.284;9.892;2022-09-03T15:20:47;5.17;;;1.30;;
20101;SDS011;10210;52.284;9.892;2022-09-03T15:23:22;2.90;;;1.30;;
20101;SDS011;10210;52.284;9.892;2022-09-03T15:26:14;4.43;;;1.50;;
20101;SDS011;10210;52.284;9.892;2022-09-03T15:29:16;4.23;;;1.60;;
20101;SDS011;10210;52.284;9.892;2022-09-03T15:44:24;4.40;;;1.23;;
20101;SDS011;10210;52.284;9.892;2022-09-03T15:46:59;2.97;;;1.30;;
20101;SDS011;10210;52.284;9.892;2022-09-03T15:54:57;6.47;;;1.63;;
20101;SDS011;10210;52.284;9.892;2022-09-03T15:57:53;5.63;;;1.50;;
20101;SDS011;10210;52.284;9.892;2022-09-03T16:00:37;4.43;;;1.50;;
20101;SDS011;10210;52.284;9.892;2022-09-03T16:03:18;2.87;;;1.50;;
20101;SDS011;10210;52.284;9.892;2022-09-03T16:06:04;2.97;;;1.40;;
20101;SDS011;10210;52.284;9.892;2022-09-03T16:14:09;4.77;;;1.70;;
20101;SDS011;10210;52.284;9.892;2022-09-03T16:17:08;3.03;;;1.60;;
20101;SDS011;10210;52.284;9.892;2022-09-03T16:22:42;4.23;;;1.47;;
20101;SDS011;10210;52.284;9.892;2022-09-03T16:25:16;4.60;;;1.60;;
20101;SDS011;10210;52.284;9.892;2022-09-03T16:28:05;3.37;;;1.30;;
20101;SDS011;10210;52.284;9.892;2022-09-03T16:30:46;5.57;;;1.70;;
20101;SDS011;10210;52.284;9.892;2022-09-03T16:42:20;1.87;;;1.30;;
20101;SDS011;10210;52.284;9.892;2022-09-03T16:45:23;7.37;;;2.23;;
20101;SDS011;10210;52.284;9.892;2022-09-03T16:54:12;3.93;;;1.60;;
20101;SDS011;10210;52.284;9.892;2022-09-03T16:56:53;4.73;;;1.80;;
20101;SDS011;10210;52.284;9.892;2022-09-03T16:59:52;3.13;;;1.40;;
20101;SDS011;10210;52.284;9.892;2022-09-03T17:02:55;3.27;;;1.60;;
20101;SDS011;10210;52.284;9.892;2022-09-03T17:08:56;6.70;;;1.70;;
20101;SDS011;10210;52.284;9.892;2022-09-03T17:17:18;9.43;;;2.00;;
20101;SDS011;10210;52.284;9.892;2022-09-03T17:19:58;4.77;;;1.70;;
20101;SDS011;10210;52.284;9.892;2022-09-03T17:22:49;4.60;;;1.63;;
20101;SDS011;10210;52.284;9.892;2022-09-03T17:28:12;5.37;;;1.80;;
20101;SDS011;10210;52.284;9.892;2022-09-03T17:31:08;4.80;;;1.70;;
20101;SDS011;10210;52.284;9.892;2022-09-03T17:36:37;4.00;;;1.70;;
20101;SDS011;10210;52.284;9.892;2022-09-03T17:42:59;4.13;;;1.60;;
20101;SDS011;10210;52.284;9.892;2022-09-03T17:48:22;6.17;;;1.93;;
20101;SDS011;10210;52.284;9.892;2022-09-03T17:54:31;5.40;;;1.83;;
20101;SDS011;10210;52.284;9.892;2022-09-03T17:57:21;3.77;;;1.70;;
20101;SDS011;10210;52.284;9.892;2022-09-03T18:00:00;7.97;;;2.00;;
20101;SDS011;10210;52.284;9.892;2022-09-03T18:02:30;4.60;;;1.73;;
20101;SDS011;10210;52.284;9.892;2022-09-03T18:08:04;6.90;;;1.80;;
20101;SDS011;10210;52.284;9.892;2022-09-03T18:13:40;5.23;;;1.93;;
20101;SDS011;10210;52.284;9.892;2022-09-03T18:16:33;5.73;;;1.93;;
20101;SDS011;10210;52.284;9.892;2022-09-03T18:19:19;6.57;;;2.07;;
20101;SDS011;10210;52.284;9.892;2022-09-03T18:22:32;6.27;;;1.70;;
20101;SDS011;10210;52.284;9.892;2022-09-03T18:25:46;5.30;;;1.87;;
20101;SDS011;10210;52.284;9.892;2022-09-03T18:28:39;5.57;;;1.83;;
20101;SDS011;10210;52.284;9.892;2022-09-03T18:31:31;5.87;;;1.80;;
20101;SDS011;10210;52.284;9.892;2022-09-03T18:34:16;6.43;;;1.90;;
20101;SDS011;10210;52.284;9.892;2022-09-03T18:37:08;8.47;;;1.90;;
20101;SDS011;10210;52.284;9.892;2022-09-03T18:39:52;6.87;;;1.70;;
20101;SDS011;10210;52.284;9.892;2022-09-03T18:48:35;5.60;;;2.03;;
20101;SDS011;10210;52.284;9.892;2022-09-03T18:58:06;5.00;;;1.90;;
20101;SDS011;10210;52.284;9.892;2022-09-03T19:01:20;6.97;;;1.90;;
20101;SDS011;10210;52.284;9.892;2022-09-03T19:04:35;5.00;;;1.90;;
20101;SDS011;10210;52.284;9.892;2022-09-03T19:08:19;4.57;;;1.90;;
20101;SDS011;10210;52.284;9.892;2022-09-03T19:20:57;7.73;;;2.63;;
20101;SDS011;10210;52.284;9.892;2022-09-03T19:24:25;8.33;;;2.40;;
20101;SDS011;10210;52.284;9.892;2022-09-03T19:30:25;4.73;;;1.90;;
20101;SDS011;10210;52.284;9.892;2022-09-03T19:33:53;9.93;;;2.00;;
20101;SDS011;10210;52.284;9.892;2022-09-03T19:37:11;5.80;;;2.20;;
20101;SDS011;10210;52.284;9.892;2022-09-03T19:40:09;4.93;;;1.90;;
20101;SDS011;10210;52.284;9.892;2022-09-03T19:43:51;6.63;;;2.00;;
20101;SDS011;10210;52.284;9.892;2022-09-03T19:47:15;8.87;;;2.30;;
20101;SDS011;10210;52.284;9.892;2022-09-03T19:50:23;6.97;;;2.20;;
20101;SDS011;10210;52.284;9.892;2022-09-03T19:53:17;9.27;;;2.50;;
20101;SDS011;10210;52.284;9.892;2022-09-03T19:56:04;7.53;;;2.20;;
20101;SDS011;10210;52.284;9.892;2022-09-03T19:58:58;6.63;;;2.10;;
20101;SDS011;10210;52.284;9.892;2022-09-03T20:01:48;7.20;;;2.30;;
20101;SDS011;10210;52.284;9.892;2022-09-03T20:04:36;7.53;;;2.20;;
20101;SDS011;10210;52.284;9.892;2022-09-03T20:07:29;6.57;;;2.33;;
20101;SDS011;10210;52.284;9.892;2022-09-03T20:10:15;6.77;;;2.30;;
20101;SDS011;10210;52.284;9.892;2022-09-03T20:13:11;7.53;;;2.50;;
20101;SDS011;10210;52.284;9.892;2022-09-03T20:21:38;9.07;;;2.37;;